No particular awareness of the weather is required.    There are no Weather-warnings


Meteo18 Weather Cam more information Meteo18 Weather Cam


Thunder radar more information blitzortung!


Rain radar more information rain snow radar


Visit our other weather sites:

Template documentation
and downloads

And another site



Weather Underground History page Text

Daily Summary for November 25, 2017 Units:  English    Metric   Both
« Previous Day
Next Day »
Daily Weekly Monthly Yearly Custom
  High: Low: Average:
Temperature: 47.8 °F 34.3 °F 42.8 °F
Dew Point: 45.9 °F 31.8 °F 39.6 °F
Humidity: 96 % 80 % 88 %
Wind Speed: 14 mph 0 mph 3.7 mph
Wind Gust: 20 mph - -
Wind:- - West
Pressure: 30.3 in 29.9 in -
Precipitation: 0.23 in    
Historical Graphs
 
 
Tabular Data for November 25, 2017
Time Temperature Dew Point Pressure Wind Wind Speed Wind Gust Humidity Rainfall Rate (Hourly)
00:02 47.8 °F 45.9 °F 29.9 in Calm   1 mph 93 % 0.06 in
00:12 47.5 °F 45.9 °F 29.9 in Calm   1 mph 94 % 0.06 in
00:17 47.5 °F 45.9 °F 29.9 in Calm   1 mph 94 % 0.06 in
00:22 47.5 °F 45.9 °F 29.9 in Calm   1 mph 94 % 0.06 in
00:27 47.3 °F 45.7 °F 29.9 in Calm   1 mph 94 % 0.06 in
00:32 47.1 °F 45.5 °F 29.9 in Calm   1 mph 94 % 0.06 in
00:37 47.1 °F 45.5 °F 29.9 in SW 1 mph 1 mph 94 % 0.06 in
00:42 46.9 °F 45.3 °F 29.9 in Calm   1 mph 94 % 0.02 in
00:52 46.9 °F 45.3 °F 29.9 in Calm   1 mph 94 % 0.02 in
01:02 46.8 °F 45.1 °F 29.9 in Calm   2 mph 94 % 0.02 in
01:12 46.8 °F 45.3 °F 29.9 in Calm   1 mph 95 % 0.02 in
01:17 46.8 °F 45.3 °F 29.9 in Calm   2 mph 95 % 0.03 in
01:22 46.8 °F 45.3 °F 29.9 in Calm   2 mph 95 % 0.03 in
01:32 46.6 °F 45.1 °F 29.9 in WSW 3 mph 3 mph 95 % 0.04 in
01:42 46.4 °F 45 °F 29.9 in SW 3 mph 4 mph 95 % 0.04 in
01:52 46.2 °F 44.8 °F 29.9 in WSW 3 mph 5 mph 95 % 0.04 in
02:02 46 °F 44.6 °F 29.9 in SW 6 mph 6 mph 95 % 0.04 in
02:07 46 °F 44.6 °F 29.9 in SW 2 mph 6 mph 95 % 0.03 in
02:12 46 °F 44.6 °F 29.9 in SW 1 mph 6 mph 95 % 0.04 in
02:17 46 °F 44.6 °F 29.9 in WSW 3 mph 6 mph 95 % 0.03 in
02:22 46 °F 44.6 °F 29.9 in SW 3 mph 6 mph 95 % 0.03 in
02:27 45.9 °F 44.4 °F 29.9 in WSW 3 mph 6 mph 95 % 0.03 in
02:32 45.9 °F 44.8 °F 29.9 in West 3 mph 6 mph 96 % 0.03 in
02:42 46 °F 45 °F 29.9 in WSW 1 mph 6 mph 96 % 0.03 in
02:52 46 °F 45 °F 29.9 in SW 2 mph 4 mph 96 % 0.03 in
03:02 46 °F 45 °F 29.9 in West 2 mph 4 mph 96 % 0.03 in
03:12 46 °F 45 °F 29.9 in SW 1 mph 4 mph 96 % 0.02 in
03:17 46.2 °F 45.1 °F 29.9 in SSW 1 mph 4 mph 96 % 0.03 in
03:22 46.2 °F 45.1 °F 29.9 in SW 1 mph 4 mph 96 % 0.03 in
03:32 46.4 °F 45.3 °F 29.9 in SW 2 mph 4 mph 96 % 0.03 in
03:42 46.6 °F 45.5 °F 29.9 in WSW 2 mph 6 mph 96 % 0.03 in
03:52 46.6 °F 45.5 °F 29.9 in SW 2 mph 6 mph 96 % 0.04 in
03:57 46.6 °F 45.5 °F 29.9 in SW 5 mph 9 mph 96 % 0.04 in
04:02 46.8 °F 45.7 °F 29.9 in WSW 4 mph 9 mph 96 % 0.05 in
04:12 46.8 °F 45.7 °F 29.9 in West 2 mph 7 mph 96 % 0.08 in
04:22 46.8 °F 45.7 °F 29.9 in WNW 4 mph 8 mph 96 % 0.09 in
04:27 46.8 °F 45.7 °F 29.9 in WNW 1 mph 8 mph 96 % 0.09 in
04:32 46.8 °F 45.7 °F 29.9 in WNW 1 mph 8 mph 96 % 0.09 in
04:42 46.6 °F 45.1 °F 29.9 in West 1 mph 4 mph 95 % 0.09 in
04:47 46.6 °F 45.1 °F 29.9 in Calm   6 mph 95 % 0.08 in
04:52 46.6 °F 45.1 °F 29.9 in WSW 2 mph 6 mph 95 % 0.08 in
04:57 46.4 °F 45 °F 29.9 in West 4 mph 6 mph 95 % 0.08 in
05:02 46.4 °F 45 °F 29.9 in West 3 mph 6 mph 95 % 0.08 in
05:12 46.2 °F 44.6 °F 29.9 in Calm   5 mph 94 % 0.05 in
05:22 46.2 °F 44.6 °F 29.9 in West 3 mph 5 mph 94 % 0.04 in
05:32 46.2 °F 44.6 °F 29.9 in West 2 mph 7 mph 94 % 0.03 in
05:37 46.2 °F 44.6 °F 29.9 in WNW 1 mph 7 mph 94 % 0.02 in
05:42 46 °F 44.4 °F 29.9 in Calm   7 mph 94 % 0.02 in
05:52 45.9 °F 44.2 °F 29.9 in SW 1 mph 4 mph 94 % 0.02 in
05:57 45.7 °F 44.1 °F 29.9 in SW 1 mph 3 mph 94 % 0.02 in
06:02 45.7 °F 43.7 °F 29.9 in WSW 1 mph 3 mph 93 % 0.02 in
06:12 45.3 °F 43.3 °F 29.9 in WNW 1 mph 3 mph 93 % 0.02 in
06:17 45.3 °F 43.3 °F 29.9 in West 1 mph 2 mph 93 % 0.01 in
06:22 45.1 °F 43.5 °F 29.9 in WNW 4 mph 4 mph 94 % 0.01 in
06:32 45.1 °F 43.5 °F 29.9 in West 2 mph 5 mph 94 % 0.01 in
06:42 45.3 °F 43.7 °F 29.9 in West 4 mph 5 mph 94 % 0 in
06:47 45.3 °F 43.7 °F 29.9 in West 3 mph 5 mph 94 % 0 in
06:52 45.3 °F 43.7 °F 29.9 in West 3 mph 5 mph 94 % 0 in
07:02 45.3 °F 43.7 °F 29.9 in West 1 mph 5 mph 94 % 0 in
07:12 45.1 °F 43.5 °F 29.9 in WNW 2 mph 5 mph 94 % 0 in
07:17 45.1 °F 43.2 °F 29.9 in West 2 mph 4 mph 93 % 0 in
07:22 45 °F 43.3 °F 29.9 in West 1 mph 4 mph 94 % 0 in
07:32 45 °F 43 °F 29.9 in West 2 mph 4 mph 93 % 0 in
07:37 45.1 °F 43 °F 29.9 in WNW 3 mph 5 mph 92 % 0 in
07:42 45.1 °F 43 °F 30 in WNW 1 mph 5 mph 92 % 0 in
07:47 45.1 °F 43 °F 30 in West 2 mph 5 mph 92 % 0 in
07:52 45.1 °F 43 °F 30 in WNW 8 mph 8 mph 92 % 0 in
07:57 45.1 °F 43 °F 30 in West 5 mph 6 mph 92 % 0 in
08:07 45 °F 42.4 °F 30 in West 6 mph 8 mph 91 % 0 in
08:12 45 °F 42.4 °F 30 in WNW 3 mph 8 mph 91 % 0 in
08:17 44.8 °F 42.3 °F 30 in WNW 8 mph 8 mph 91 % 0 in
08:22 44.8 °F 42.1 °F 30 in WNW 5 mph 8 mph 90 % 0 in
08:32 44.4 °F 41.7 °F 30 in West 4 mph 10 mph 90 % 0 in
08:42 44.2 °F 41.7 °F 30 in West 2 mph 10 mph 91 % 0 in
08:52 44.1 °F 41.5 °F 30 in WNW 5 mph 7 mph 91 % 0 in
09:02 44.2 °F 41.7 °F 30 in WSW 5 mph 8 mph 91 % 0 in
09:12 44.2 °F 42.1 °F 30 in WSW 5 mph 8 mph 92 % 0 in
09:17 44.2 °F 42.1 °F 30 in West 7 mph 8 mph 92 % 0 in
09:27 44.8 °F 42.6 °F 30 in West 7 mph 11 mph 92 % 0 in
09:32 44.8 °F 42.6 °F 30 in West 5 mph 11 mph 92 % 0 in
09:37 45 °F 42.8 °F 30 in WSW 6 mph 11 mph 92 % 0 in
09:42 45 °F 42.4 °F 30 in West 7 mph 11 mph 91 % 0 in
09:52 44.8 °F 41.7 °F 30 in West 8 mph 11 mph 89 % 0 in
10:02 45 °F 41.5 °F 30 in WSW 8 mph 16 mph 88 % 0 in
10:12 44.8 °F 41.4 °F 30 in WNW 8 mph 14 mph 88 % 0 in
10:17 44.8 °F 41.4 °F 30 in West 3 mph 14 mph 88 % 0 in
10:22 44.8 °F 41.4 °F 30 in West 6 mph 14 mph 88 % 0 in
10:27 44.8 °F 41.4 °F 30 in NW 8 mph 14 mph 88 % 0 in
10:32 44.8 °F 41.2 °F 30 in WSW 5 mph 14 mph 87 % 0 in
10:42 44.6 °F 41 °F 30 in WNW 9 mph 14 mph 87 % 0 in
10:47 44.4 °F 40.8 °F 30 in West 4 mph 17 mph 87 % 0 in
10:52 44.4 °F 40.8 °F 30 in West 10 mph 17 mph 87 % 0 in
11:02 44.6 °F 40.6 °F 30 in West 6 mph 17 mph 86 % 0 in
11:12 44.8 °F 41.2 °F 30.1 in West 13 mph 17 mph 87 % 0 in
11:17 44.8 °F 40.5 °F 30.1 in West 7 mph 16 mph 85 % 0 in
11:22 44.8 °F 40.5 °F 30.1 in WNW 12 mph 16 mph 85 % 0 in
11:27 44.4 °F 40.3 °F 30.1 in West 10 mph 19 mph 85 % 0 in
11:32 44.2 °F 40.1 °F 30.1 in West 12 mph 19 mph 85 % 0 in
11:42 43.9 °F 39.9 °F 30.1 in West 6 mph 19 mph 86 % 0 in
11:47 43.7 °F 39.7 °F 30.1 in West 8 mph 17 mph 86 % 0 in
11:52 43.5 °F 39.6 °F 30.1 in WNW 7 mph 17 mph 86 % 0 in
12:02 43.3 °F 39.4 °F 30.1 in WNW 9 mph 16 mph 86 % 0 in
12:12 43 °F 39 °F 30.1 in West 5 mph 16 mph 86 % 0 in
12:17 43.2 °F 39.2 °F 30.1 in WSW 13 mph 20 mph 86 % 0 in
12:22 43 °F 39 °F 30.1 in West 5 mph 20 mph 86 % 0 in
12:32 43 °F 38.8 °F 30.1 in WNW 10 mph 15 mph 85 % 0 in
12:37 43 °F 38.8 °F 30.1 in WNW 13 mph 16 mph 85 % 0 in
12:42 43.3 °F 39.4 °F 30.1 in West 9 mph 16 mph 86 % 0 in
12:47 43.3 °F 38.8 °F 30.1 in WNW 6 mph 16 mph 84 % 0 in
12:57 43.5 °F 38.5 °F 30.1 in West 7 mph 17 mph 82 % 0 in
13:02 43.7 °F 38.5 °F 30.1 in WNW 10 mph 17 mph 82 % 0 in
13:12 43.7 °F 38.8 °F 30.1 in WNW 14 mph 18 mph 83 % 0 in
13:17 43.3 °F 38.5 °F 30.1 in WNW 7 mph 18 mph 83 % 0 in
13:22 43.2 °F 38.3 °F 30.1 in NW 9 mph 18 mph 83 % 0 in
13:32 43 °F 37.9 °F 30.1 in WNW 11 mph 16 mph 82 % 0 in
13:37 43 °F 38.1 °F 30.1 in NW 8 mph 16 mph 83 % 0 in
13:42 43 °F 38.1 °F 30.1 in West 7 mph 16 mph 83 % 0 in
13:47 42.8 °F 37.8 °F 30.1 in WNW 6 mph 15 mph 82 % 0 in
13:52 42.6 °F 38.1 °F 30.1 in West 8 mph 15 mph 84 % 0 in
14:02 42.4 °F 37.9 °F 30.1 in West 7 mph 11 mph 84 % 0 in
14:12 42.6 °F 37.8 °F 30.1 in WNW 11 mph 14 mph 83 % 0 in
14:17 42.6 °F 37.8 °F 30.1 in WNW 8 mph 16 mph 83 % 0 in
14:22 42.6 °F 37.6 °F 30.1 in WNW 7 mph 16 mph 82 % 0 in
14:32 42.6 °F 37.8 °F 30.1 in WNW 11 mph 16 mph 83 % 0 in
14:42 42.4 °F 37.4 °F 30.1 in WNW 9 mph 15 mph 82 % 0 in
14:47 42.6 °F 37.8 °F 30.1 in WNW 4 mph 13 mph 83 % 0 in
14:52 42.6 °F 37.6 °F 30.1 in WNW 5 mph 13 mph 82 % 0 in
15:02 43 °F 37.6 °F 30.1 in WNW 5 mph 14 mph 81 % 0 in
15:12 43 °F 37.6 °F 30.1 in NW 4 mph 13 mph 81 % 0 in
15:17 43.3 °F 37.9 °F 30.1 in West 2 mph 12 mph 81 % 0 in
15:22 43.5 °F 38.1 °F 30.1 in West 6 mph 12 mph 81 % 0 in
15:32 43.3 °F 37.9 °F 30.1 in WSW 6 mph 15 mph 81 % 0 in
15:37 43.3 °F 37.6 °F 30.1 in WNW 8 mph 15 mph 80 % 0 in
15:42 43 °F 37.2 °F 30.2 in West 9 mph 15 mph 80 % 0 in
15:52 42.6 °F 37.2 °F 30.2 in WNW 11 mph 13 mph 81 % 0 in
16:02 42.6 °F 37.2 °F 30.2 in WNW 5 mph 15 mph 81 % 0 in
16:12 42.4 °F 36.7 °F 30.2 in WNW 8 mph 15 mph 80 % 0 in
16:17 42.4 °F 36.7 °F 30.2 in WNW 3 mph 14 mph 80 % 0 in
16:22 42.4 °F 36.7 °F 30.2 in WNW 5 mph 14 mph 80 % 0 in
16:27 42.3 °F 36.9 °F 30.2 in WNW 8 mph 10 mph 81 % 0 in
16:32 42.1 °F 37 °F 30.2 in WNW 2 mph 10 mph 82 % 0 in
16:37 42.1 °F 37 °F 30.2 in WNW 4 mph 9 mph 82 % 0 in
16:42 41.9 °F 36.9 °F 30.2 in WNW 1 mph 9 mph 82 % 0 in
17:02 41.4 °F 36 °F 30.2 in WNW 7 mph 15 mph 81 % 0 in
17:12 41 °F 35.6 °F 30.2 in WNW 5 mph 14 mph 81 % 0 in
17:17 40.6 °F 35.2 °F 30.2 in West 1 mph 14 mph 81 % 0 in
17:22 40.6 °F 35.2 °F 30.2 in NW 2 mph 14 mph 81 % 0 in
17:32 40.3 °F 35.2 °F 30.2 in West 2 mph 10 mph 82 % 0 in
17:37 40.1 °F 35.4 °F 30.2 in NW 4 mph 7 mph 83 % 0 in
17:42 39.9 °F 35.2 °F 30.2 in WNW 4 mph 7 mph 83 % 0 in
17:47 39.7 °F 35.1 °F 30.2 in WNW 2 mph 5 mph 83 % 0 in
17:52 39.6 °F 35.1 °F 30.2 in Calm   5 mph 84 % 0 in
17:57 39.6 °F 35.1 °F 30.2 in Calm   5 mph 84 % 0 in
18:02 39.4 °F 34.9 °F 30.2 in WNW 1 mph 5 mph 84 % 0 in
18:07 39.4 °F 34.9 °F 30.2 in West 2 mph 6 mph 84 % 0 in
18:12 39.2 °F 34.7 °F 30.2 in West 1 mph 6 mph 84 % 0 in
18:17 39 °F 34.5 °F 30.2 in WNW 2 mph 6 mph 84 % 0 in
18:22 38.8 °F 34.3 °F 30.2 in WNW 2 mph 6 mph 84 % 0 in
18:37 38.8 °F 34.3 °F 30.2 in WNW 5 mph 6 mph 84 % 0 in
18:42 38.8 °F 34.3 °F 30.2 in West 5 mph 7 mph 84 % 0 in
18:47 38.8 °F 34.2 °F 30.2 in WNW 4 mph 9 mph 83 % 0 in
18:52 38.8 °F 34.2 °F 30.2 in WNW 3 mph 9 mph 83 % 0 in
18:57 38.8 °F 34.2 °F 30.2 in West 2 mph 9 mph 83 % 0 in
19:02 38.8 °F 34.3 °F 30.2 in WNW 4 mph 9 mph 84 % 0 in
19:12 39 °F 34.3 °F 30.2 in WNW 2 mph 7 mph 83 % 0 in
19:17 39 °F 34.3 °F 30.2 in West 1 mph 8 mph 83 % 0 in
19:22 39 °F 34.3 °F 30.2 in WNW 1 mph 8 mph 83 % 0 in
19:32 39 °F 34.3 °F 30.3 in NW 3 mph 6 mph 83 % 0 in
19:42 39.4 °F 34.7 °F 30.3 in Calm   6 mph 83 % 0 in
19:52 39 °F 34.5 °F 30.3 in WNW 1 mph 4 mph 84 % 0 in
20:02 39 °F 34.5 °F 30.3 in West 1 mph 7 mph 84 % 0 in
20:07 38.8 °F 34.2 °F 30.3 in West 5 mph 6 mph 83 % 0 in
20:12 38.8 °F 34.2 °F 30.3 in WSW 5 mph 6 mph 83 % 0 in
20:17 38.7 °F 34 °F 30.3 in WSW 3 mph 6 mph 83 % 0 in
20:22 38.5 °F 33.8 °F 30.3 in West 1 mph 6 mph 83 % 0 in
20:32 37.9 °F 33.3 °F 30.3 in Calm   5 mph 83 % 0 in
20:37 37.8 °F 33.1 °F 30.3 in WSW 1 mph 2 mph 83 % 0 in
20:42 37.8 °F 33.1 °F 30.3 in Calm   2 mph 83 % 0 in
20:47 37.6 °F 32.9 °F 30.3 in Calm   2 mph 83 % 0 in
20:57 37 °F 32.7 °F 30.3 in WSW 1 mph 2 mph 84 % 0 in
21:02 37.2 °F 32.9 °F 30.3 in WSW 1 mph 2 mph 84 % 0 in
21:12 37.2 °F 32.5 °F 30.3 in Calm   3 mph 83 % 0 in
21:17 37.2 °F 32.5 °F 30.3 in Calm   2 mph 83 % 0 in
21:22 37.2 °F 32.5 °F 30.3 in Calm   2 mph 83 % 0 in
21:27 37.2 °F 32.5 °F 30.3 in SW 1 mph 1 mph 83 % 0 in
21:32 37.2 °F 32.5 °F 30.3 in WSW 1 mph 1 mph 83 % 0 in
21:42 37 °F 32.7 °F 30.3 in WSW 1 mph 3 mph 84 % 0 in
21:47 37.2 °F 32.9 °F 30.3 in West 2 mph 3 mph 84 % 0 in
21:57 37.4 °F 33.1 °F 30.3 in West 1 mph 4 mph 84 % 0 in
22:02 37.2 °F 32.9 °F 30.3 in WSW 2 mph 4 mph 84 % 0 in
22:12 37.4 °F 33.1 °F 30.3 in Calm   3 mph 84 % 0 in
22:17 37.2 °F 32.9 °F 30.3 in SW 1 mph 3 mph 84 % 0 in
22:27 36 °F 32.2 °F 30.3 in Calm   2 mph 86 % 0 in
22:32 35.6 °F 32.2 °F 30.3 in Calm   2 mph 87 % 0 in
22:42 35.2 °F 32 °F 30.3 in Calm   2 mph 88 % 0 in
22:52 34.9 °F 32 °F 30.3 in Calm     89 % 0 in
23:02 34.9 °F 32.2 °F 30.3 in SSE 1 mph   90 % 0 in
23:12 34.9 °F 32.2 °F 30.3 in Calm   1 mph 90 % 0 in
23:22 34.5 °F 31.8 °F 30.3 in Calm   1 mph 90 % 0 in
23:32 34.5 °F 31.8 °F 30.3 in SE 1 mph 2 mph 90 % 0 in
23:42 34.3 °F 32 °F 30.3 in Calm   2 mph 91 % 0 in
23:47 34.3 °F 32 °F 30.3 in Calm   1 mph 91 % 0 in
23:52 34.3 °F 32 °F 30.3 in Calm   1 mph 91 % 0 in
Meteo18
Compliments of Weather Underground - 4 mb

Script developed by  Jim McMurry - jmcmurry@mwt.net Adapted for the template by  Wim van der Kuil - Leuven-Template.eu

You find our weather info also at:

European Weather Network

Weather Underground

Equipment we use:

Weather-station
Davis Vue

Weather-program
Meteohub

Weather-server
Raspberry PI 2 B+

Provider
1 and 1

Davis Vue

Meteohub

Raspberry PI 2 B+

1 and 1